Time;durP1;ratioP1;P1;durP2;ratioP2;P2;SDS_P1;SDS_P2;PMS_P1;PMS_P2;Temp;Humidity;BMP_temperature;BMP_pressure;BME280_temperature;BME280_humidity;BME280_pressure;Samples;Min_cycle;Max_cycle;Signal;HPM_P1;HPM_P2
2022/10/21 00:00:12;;;;;;;3.13;1.53;;;;;;;2.32;100.00;100513.99;1798295;77;21104;-45
2022/10/21 00:02:42;;;;;;;2.67;1.27;;;;;;;2.28;100.00;100509.59;1797956;77;21351;-44
2022/10/21 00:05:10;;;;;;;1.80;1.00;;;;;;;2.26;100.00;100505.61;1801800;77;22170;-47
2022/10/21 00:07:38;;;;;;;5.30;1.50;;;;;;;2.25;100.00;100503.84;1802629;77;21609;-47
2022/10/21 00:10:06;;;;;;;4.63;2.00;;;;;;;2.22;100.00;100505.16;1797363;77;21037;-47
2022/10/21 00:12:33;;;;;;;5.63;1.33;;;;;;;2.20;100.00;100497.66;1797666;77;21068;-47
2022/10/21 00:15:06;;;;;;;2.77;1.83;;;;;;;2.17;100.00;100497.66;1794908;77;21029;-47
2022/10/21 00:17:39;;;;;;;2.37;1.10;;;;;;;2.13;100.00;100498.54;1794209;77;21789;-47
2022/10/21 00:20:09;;;;;;;2.80;1.30;;;;;;;2.11;100.00;100495.03;1798542;77;21017;-47
2022/10/21 00:22:36;;;;;;;2.37;1.10;;;;;;;2.10;100.00;100493.70;1798672;77;21605;-47
2022/10/21 00:25:02;;;;;;;2.73;1.27;;;;;;;2.10;100.00;100485.73;1799707;77;21650;-47
2022/10/21 00:27:29;;;;;;;8.33;1.70;;;;;;;2.08;100.00;100491.05;1796219;77;21029;-47
2022/10/21 00:29:56;;;;;;;2.40;1.03;;;;;;;2.07;100.00;100488.38;1794488;77;21829;-47
2022/10/21 00:32:22;;;;;;;5.47;1.67;;;;;;;2.04;100.00;100499.03;1783674;77;20978;-47
2022/10/21 00:34:49;;;;;;;3.07;1.40;;;;;;;2.01;100.00;100503.02;1783964;77;21021;-47
2022/10/21 00:37:16;;;;;;;3.63;1.70;;;;;;;1.96;100.00;100510.97;1786824;77;21049;-47
2022/10/21 00:39:43;;;;;;;9.50;2.03;;;;;;;1.92;100.00;100509.66;1786601;77;21063;-47
2022/10/21 00:42:17;;;;;;;3.93;1.97;;;;;;;1.87;100.00;100518.97;1794545;77;21938;-47
2022/10/21 00:44:43;;;;;;;3.30;1.67;;;;;;;1.81;100.00;100514.97;1786435;77;21497;-47
2022/10/21 00:47:16;;;;;;;3.00;1.63;;;;;;;1.78;100.00;100512.34;1785831;77;21017;-47
2022/10/21 00:49:54;;;;;;;4.10;1.90;;;;;;;1.75;100.00;100514.55;1792265;77;21100;-47
2022/10/21 00:52:21;;;;;;;2.53;1.13;;;;;;;1.76;100.00;100526.05;1790002;77;21372;-47
2022/10/21 00:54:51;;;;;;;5.43;1.67;;;;;;;1.73;100.00;100521.62;1782569;77;21882;-47
2022/10/21 00:57:17;;;;;;;4.13;1.40;;;;;;;1.73;100.00;100526.04;1782367;77;21088;-47
2022/10/21 00:59:49;;;;;;;3.27;1.60;;;;;;;1.73;100.00;100526.04;1790888;77;21920;-46
2022/10/21 01:02:18;;;;;;;2.57;1.53;;;;;;;1.73;100.00;100528.69;1790245;77;21450;-46
2022/10/21 01:04:45;;;;;;;1.83;1.00;;;;;;;1.74;100.00;100515.42;1788107;77;21026;-45
2022/10/21 01:07:11;;;;;;;3.50;1.50;;;;;;;1.76;100.00;100516.76;1787093;77;22899;-44
2022/10/21 01:09:37;;;;;;;6.10;1.40;;;;;;;1.76;100.00;100513.66;1791139;77;21773;-45
2022/10/21 01:12:05;;;;;;;2.57;1.13;;;;;;;1.76;100.00;100514.99;1789226;77;21029;-44
2022/10/21 01:14:59;;;;;;;3.40;1.10;;;;;;;1.75;100.00;100509.23;1784251;77;21002;-44
2022/10/21 01:18:07;;;;;;;2.47;1.07;;;;;;;1.76;100.00;100502.16;1763988;77;22174;-46
2022/10/21 01:21:04;;;;;;;2.53;0.87;;;;;;;1.73;100.00;100503.03;1787467;77;21880;-46
2022/10/21 01:23:45;;;;;;;3.80;1.00;;;;;;;1.73;100.00;100510.11;1788110;77;21029;-47
2022/10/21 01:26:41;;;;;;;2.93;0.73;;;;;;;1.67;100.00;100508.36;1772335;77;21072;-47
2022/10/21 01:29:19;;;;;;;7.30;1.37;;;;;;;1.61;100.00;100505.72;1785580;77;21029;-47
2022/10/21 01:32:06;;;;;;;1.90;0.90;;;;;;;1.57;100.00;100505.26;1784225;77;21037;-47
2022/10/21 01:34:50;;;;;;;1.47;1.13;;;;;;;1.56;100.00;100510.56;1772320;77;21872;-47
2022/10/21 01:37:25;;;;;;;3.42;1.45;;;;;;;1.55;100.00;100518.95;1791196;77;21547;-47
2022/10/21 01:40:05;;;;;;;2.17;1.00;;;;;;;1.55;100.00;100527.36;1786417;77;21060;-46
2022/10/21 01:42:37;;;;;;;2.17;1.10;;;;;;;1.50;100.00;100540.20;1785220;77;21255;-46
2022/10/21 01:45:30;;;;;;;4.53;0.90;;;;;;;1.48;100.00;100538.41;1788128;77;21037;-47
2022/10/21 01:48:01;;;;;;;2.30;1.00;;;;;;;1.45;100.00;100533.98;1788447;77;22877;-47
2022/10/21 01:50:30;;;;;;;4.10;1.20;;;;;;;1.44;100.00;100534.89;1785410;77;21073;-47
2022/10/21 01:53:00;;;;;;;2.53;1.00;;;;;;;1.44;100.00;100541.53;1795445;77;21108;-47
2022/10/21 01:55:29;;;;;;;3.47;0.90;;;;;;;1.41;100.00;100542.84;1787298;77;21106;-47
2022/10/21 01:58:11;;;;;;;4.40;1.20;;;;;;;1.41;100.00;100542.84;1762556;77;20994;-47
2022/10/21 02:00:37;;;;;;;4.67;1.10;;;;;;;1.41;100.00;100544.61;1784846;77;21972;-47
2022/10/21 02:03:07;;;;;;;1.50;1.20;;;;;;;1.38;100.00;100548.13;1786638;77;21090;-47
2022/10/21 02:05:33;;;;;;;1.90;0.90;;;;;;;1.37;100.00;100542.81;1787310;77;21597;-47
2022/10/21 02:08:00;;;;;;;3.33;1.20;;;;;;;1.36;100.00;100556.98;1793004;77;21069;-47
2022/10/21 02:10:30;;;;;;;2.57;1.60;;;;;;;1.35;100.00;100548.14;1785140;77;21053;-47
2022/10/21 02:12:59;;;;;;;3.07;0.90;;;;;;;1.35;100.00;100549.91;1783910;77;21834;-47
2022/10/21 02:15:25;;;;;;;4.83;1.00;;;;;;;1.34;100.00;100543.72;1784645;77;21546;-47
2022/10/21 02:17:56;;;;;;;4.33;1.10;;;;;;;1.33;100.00;100551.23;1760363;77;21045;-47
2022/10/21 02:20:24;;;;;;;5.10;1.40;;;;;;;1.32;100.00;100552.11;1786694;77;21046;-46
2022/10/21 02:22:51;;;;;;;2.77;0.87;;;;;;;1.33;100.00;100549.02;1789496;77;21009;-47
2022/10/21 02:25:23;;;;;;;4.10;1.30;;;;;;;1.33;100.00;100548.58;1784536;77;21906;-47
2022/10/21 02:27:50;;;;;;;2.87;1.07;;;;;;;1.34;100.00;100557.42;1771995;77;21021;-46
2022/10/21 02:30:17;;;;;;;2.17;1.10;;;;;;;1.35;100.00;100556.10;1786800;77;21116;-47
2022/10/21 02:32:56;;;;;;;8.10;0.90;;;;;;;1.35;100.00;100541.95;1765757;79;21069;-47
2022/10/21 02:35:34;;;;;;;2.83;0.80;;;;;;;1.36;100.00;100543.25;1733489;79;21021;-47
2022/10/21 02:38:15;;;;;;;2.13;1.00;;;;;;;1.38;100.00;100544.59;1784640;79;21834;-47
2022/10/21 02:40:44;;;;;;;1.10;0.80;;;;;;;1.37;100.00;100550.33;1787045;79;21089;-47
2022/10/21 02:43:18;;;;;;;3.80;1.03;;;;;;;1.33;100.00;100554.32;1784307;79;21025;-47
2022/10/21 02:45:46;;;;;;;2.07;0.90;;;;;;;1.30;100.00;100552.54;1785236;79;21049;-47
2022/10/21 02:48:12;;;;;;;3.67;1.10;;;;;;;1.30;100.00;100555.63;1787897;79;22188;-47
2022/10/21 02:50:40;;;;;;;2.23;0.93;;;;;;;1.31;100.00;100563.59;1788116;79;21754;-47
2022/10/21 02:53:07;;;;;;;2.67;1.10;;;;;;;1.29;100.00;100562.70;1789708;79;21708;-46
2022/10/21 02:55:33;;;;;;;5.13;1.20;;;;;;;1.29;100.00;100557.83;1787689;79;21025;-47
2022/10/21 02:58:00;;;;;;;3.87;1.30;;;;;;;1.29;100.00;100556.06;1783548;79;21527;-47
2022/10/21 03:00:27;;;;;;;3.23;1.30;;;;;;;1.30;100.00;100564.91;1783415;79;21053;-47
2022/10/21 03:02:54;;;;;;;2.07;1.10;;;;;;;1.30;100.00;100565.80;1782069;79;22847;-47
2022/10/21 03:05:20;;;;;;;1.63;1.20;;;;;;;1.29;100.00;100564.02;1783192;79;21713;-47
2022/10/21 03:07:49;;;;;;;2.77;1.40;;;;;;;1.28;100.00;100561.36;1783602;79;21483;-47
2022/10/21 03:10:15;;;;;;;5.93;1.53;;;;;;;1.25;100.00;100571.98;1787264;77;21044;-47
2022/10/21 03:12:42;;;;;;;5.40;1.57;;;;;;;1.19;100.00;100572.87;1786098;79;21531;-47
2022/10/21 03:15:09;;;;;;;2.53;1.20;;;;;;;1.16;100.00;100575.94;1787545;79;21831;-46
2022/10/21 03:17:36;;;;;;;2.90;1.40;;;;;;;1.12;100.00;100577.24;1785143;79;21022;-47
2022/10/21 03:20:05;;;;;;;4.30;1.30;;;;;;;1.10;100.00;100576.82;1786226;79;21021;-46
2022/10/21 03:22:32;;;;;;;3.50;1.43;;;;;;;1.06;100.00;100574.58;1789739;79;21064;-47
2022/10/21 03:24:59;;;;;;;6.03;1.50;;;;;;;1.03;100.00;100567.94;1788753;79;21136;-46
2022/10/21 03:27:26;;;;;;;4.10;2.33;;;;;;;1.02;100.00;100577.23;1789054;79;21822;-47
2022/10/21 03:29:53;;;;;;;5.87;3.13;;;;;;;1.00;100.00;100569.27;1784289;79;21538;-48
2022/10/21 03:32:19;;;;;;;3.40;2.40;;;;;;;1.01;100.00;100568.83;1785029;78;21085;-46
2022/10/21 03:34:46;;;;;;;8.00;2.87;;;;;;;1.01;100.00;100564.86;1784609;77;21324;-47
2022/10/21 03:37:13;;;;;;;5.33;2.47;;;;;;;1.02;100.00;100567.95;1784464;77;21065;-47
2022/10/21 03:39:40;;;;;;;5.90;2.83;;;;;;;1.02;100.00;100568.81;1790166;77;22745;-46
2022/10/21 03:42:06;;;;;;;5.37;2.20;;;;;;;1.01;100.00;100575.02;1793645;77;22296;-47
2022/10/21 03:44:33;;;;;;;6.30;2.40;;;;;;;1.02;100.00;100570.14;1792481;77;21076;-47
2022/10/21 03:46:59;;;;;;;3.37;2.40;;;;;;;1.02;100.00;100563.51;1785026;77;21026;-47
2022/10/21 03:49:27;;;;;;;4.83;2.60;;;;;;;1.04;100.00;100570.15;1781456;77;21025;-46
2022/10/21 03:51:53;;;;;;;8.07;2.60;;;;;;;1.04;100.00;100567.05;1790126;77;22562;-47
2022/10/21 03:54:20;;;;;;;2.90;2.03;;;;;;;1.05;100.00;100569.27;1784296;77;21548;-47
2022/10/21 03:56:46;;;;;;;6.07;1.53;;;;;;;1.07;100.00;100563.10;1789951;77;21021;-46
2022/10/21 03:59:12;;;;;;;2.13;1.03;;;;;;;1.08;100.00;100553.39;1790650;77;21045;-47
2022/10/21 04:01:39;;;;;;;4.30;1.53;;;;;;;1.10;100.00;100558.26;1784588;77;21045;-47
2022/10/21 04:04:06;;;;;;;2.07;1.20;;;;;;;1.11;100.00;100566.19;1787799;77;21955;-46
2022/10/21 04:06:32;;;;;;;2.60;1.03;;;;;;;1.10;100.00;100564.45;1783377;77;21062;-46
2022/10/21 04:08:58;;;;;;;1.90;1.00;;;;;;;1.09;100.00;100561.78;1787073;77;21072;-46
2022/10/21 04:11:26;;;;;;;3.97;1.20;;;;;;;1.08;100.00;100562.66;1786450;77;21041;-47
2022/10/21 04:13:53;;;;;;;4.30;1.00;;;;;;;1.08;100.00;100556.03;1789872;77;21076;-45
2022/10/21 04:16:21;;;;;;;2.13;0.90;;;;;;;1.08;100.00;100559.58;1786779;77;21179;-44
2022/10/21 04:18:48;;;;;;;3.97;0.93;;;;;;;1.08;100.00;100561.34;1792022;77;21067;-44
2022/10/21 04:21:16;;;;;;;2.33;1.00;;;;;;;1.07;100.00;100558.23;1792254;77;21535;-44
2022/10/21 04:23:42;;;;;;;4.33;1.00;;;;;;;1.04;100.00;100568.38;1731965;81;21022;-44
2022/10/21 04:26:09;;;;;;;1.20;0.70;;;;;;;1.03;100.00;100569.70;1728106;81;21120;-44
2022/10/21 04:28:35;;;;;;;1.00;0.70;;;;;;;1.00;100.00;100571.03;1748220;79;21841;-44
2022/10/21 04:31:03;;;;;;;2.10;0.80;;;;;;;0.98;100.00;100572.79;1789886;77;21486;-44
2022/10/21 04:33:29;;;;;;;1.90;0.70;;;;;;;0.96;100.00;100571.89;1788422;77;21068;-45
2022/10/21 04:35:57;;;;;;;2.03;0.90;;;;;;;0.93;100.00;100571.90;1793119;77;21073;-45
2022/10/21 04:38:24;;;;;;;2.10;0.90;;;;;;;0.91;100.00;100571.00;1793946;77;21025;-44
2022/10/21 04:40:57;;;;;;;3.77;0.90;;;;;;;0.91;100.00;100579.84;1786195;77;21928;-44
2022/10/21 04:43:24;;;;;;;7.07;1.47;;;;;;;0.91;100.00;100579.84;1796140;77;21072;-44
2022/10/21 04:45:51;;;;;;;1.80;0.63;;;;;;;0.91;100.00;100576.30;1798985;77;21045;-44
2022/10/21 04:48:17;;;;;;;1.60;0.60;;;;;;;0.92;100.00;100590.00;1784230;77;21081;-44
2022/10/21 04:50:43;;;;;;;2.30;0.60;;;;;;;0.90;100.00;100587.34;1787067;77;22186;-44
2022/10/21 04:53:10;;;;;;;1.20;0.60;;;;;;;0.90;100.00;100586.45;1792079;77;21902;-44
2022/10/21 04:55:39;;;;;;;1.50;0.77;;;;;;;0.89;100.00;100580.27;1789167;77;21101;-45
2022/10/21 04:58:06;;;;;;;4.63;0.70;;;;;;;0.89;100.00;100584.68;1788873;77;21421;-44
2022/10/21 05:00:32;;;;;;;0.90;0.70;;;;;;;0.88;100.00;100595.72;1792133;77;21057;-45
2022/10/21 05:02:59;;;;;;;3.00;1.00;;;;;;;0.90;100.00;100605.89;1784303;77;21041;-44
2022/10/21 05:05:25;;;;;;;3.50;1.10;;;;;;;0.91;100.00;100597.51;1798500;77;21256;-44
2022/10/21 05:07:52;;;;;;;1.53;0.93;;;;;;;0.93;100.00;100590.45;1786710;77;21256;-44
2022/10/21 05:10:19;;;;;;;1.57;0.90;;;;;;;0.98;100.00;100590.91;1791254;77;21009;-44
2022/10/21 05:12:47;;;;;;;2.47;0.90;;;;;;;1.07;100.00;100587.41;1787968;77;21571;-45
2022/10/21 05:15:14;;;;;;;5.53;0.90;;;;;;;1.16;100.00;100590.09;1787872;77;21374;-45
2022/10/21 05:17:41;;;;;;;2.83;0.87;;;;;;;1.27;100.00;100591.02;1784661;77;21944;-45
2022/10/21 05:20:09;;;;;;;2.33;0.70;;;;;;;1.38;100.00;100581.73;1766578;78;21312;-45
2022/10/21 05:22:37;;;;;;;3.47;0.80;;;;;;;1.49;100.00;100582.64;1786304;77;21645;-45
2022/10/21 05:25:05;;;;;;;1.33;0.80;;;;;;;1.63;100.00;100579.55;1785018;77;21037;-45
2022/10/21 05:27:31;;;;;;;1.27;0.77;;;;;;;1.75;100.00;100570.28;1783308;77;21048;-44
2022/10/21 05:29:58;;;;;;;1.10;0.70;;;;;;;1.85;100.00;100575.16;1782765;77;23452;-45
2022/10/21 05:32:24;;;;;;;1.10;0.70;;;;;;;1.92;100.00;100587.98;1787885;77;21067;-45
2022/10/21 05:34:51;;;;;;;3.33;0.87;;;;;;;1.96;100.00;100581.33;1796095;77;21017;-46
2022/10/21 05:37:18;;;;;;;2.77;0.70;;;;;;;2.03;100.00;100580.47;1797646;77;21116;-46
2022/10/21 05:39:44;;;;;;;3.20;0.70;;;;;;;2.09;100.00;100580.45;1794541;77;21032;-46
2022/10/21 05:42:11;;;;;;;1.00;0.67;;;;;;;2.16;100.00;100572.03;1798072;77;21783;-46
2022/10/21 05:44:37;;;;;;;1.27;0.60;;;;;;;2.24;100.00;100572.90;1799676;77;21115;-46
2022/10/21 05:47:03;;;;;;;0.97;0.67;;;;;;;2.31;100.00;100575.09;1793804;77;21087;-46
2022/10/21 05:49:31;;;;;;;1.97;0.67;;;;;;;2.36;100.00;100583.96;1803585;77;21108;-46
2022/10/21 05:51:57;;;;;;;4.03;0.60;;;;;;;2.43;100.00;100589.26;1795256;77;22687;-46
2022/10/21 05:54:24;;;;;;;1.00;0.60;;;;;;;2.50;100.00;100588.79;1794707;77;21910;-47
2022/10/21 05:56:50;;;;;;;1.00;0.63;;;;;;;2.56;100.00;100584.78;1801053;77;21095;-46
2022/10/21 05:59:17;;;;;;;1.63;0.60;;;;;;;2.62;100.00;100576.81;1795299;77;21065;-46
2022/10/21 06:01:44;;;;;;;1.60;0.80;;;;;;;2.68;100.00;100582.10;1795728;77;21033;-45
2022/10/21 06:04:10;;;;;;;4.70;1.20;;;;;;;2.73;100.00;100579.41;1793109;77;21049;-45
2022/10/21 06:06:36;;;;;;;4.37;2.67;;;;;;;2.76;100.00;100592.27;1801035;77;22648;-46
2022/10/21 06:09:04;;;;;;;5.90;2.93;;;;;;;2.80;100.00;100589.16;1798675;77;21030;-45
2022/10/21 06:11:32;;;;;;;5.03;1.70;;;;;;;2.84;100.00;100596.22;1794240;77;21029;-46
2022/10/21 06:13:59;;;;;;;6.00;2.10;;;;;;;2.86;100.00;100595.78;1794813;77;21025;-46
2022/10/21 06:16:25;;;;;;;2.33;1.70;;;;;;;2.86;100.00;100605.09;1792439;77;21511;-45
2022/10/21 06:18:52;;;;;;;4.87;1.40;;;;;;;2.86;100.00;100596.66;1802621;77;21795;-45
2022/10/21 06:21:19;;;;;;;5.47;1.57;;;;;;;2.89;100.00;100595.78;1789659;77;21002;-47
2022/10/21 06:23:45;;;;;;;5.30;1.20;;;;;;;2.94;100.00;100598.84;1796834;77;21021;-45
2022/10/21 06:26:14;;;;;;;3.87;1.77;;;;;;;2.97;100.00;100596.63;1792436;77;21108;-46
2022/10/21 06:28:42;;;;;;;2.90;1.00;;;;;;;3.02;100.00;100598.37;1795148;77;21033;-45
2022/10/21 06:31:13;;;;;;;2.43;1.10;;;;;;;3.07;100.00;100609.41;1794385;77;21709;-47
2022/10/21 06:33:40;;;;;;;2.00;1.23;;;;;;;3.11;100.00;100600.10;1774879;77;21080;-46
2022/10/21 06:36:06;;;;;;;1.23;1.00;;;;;;;3.17;100.00;100604.05;1794759;77;20990;-46
2022/10/21 06:38:33;;;;;;;2.37;1.30;;;;;;;3.22;100.00;100600.95;1786231;77;21661;-46
2022/10/21 06:41:01;;;;;;;1.43;0.90;;;;;;;3.29;100.00;100601.80;1785664;77;21028;-47
2022/10/21 06:43:27;;;;;;;1.53;1.00;;;;;;;3.35;100.00;100603.97;1786443;77;21826;-47
2022/10/21 06:46:01;;;;;;;1.97;1.30;;;;;;;3.41;100.00;100605.25;1785021;77;21215;-46
2022/10/21 06:48:29;;;;;;;3.23;1.47;;;;;;;3.46;100.00;100611.02;1786741;77;21035;-46
2022/10/21 06:51:08;;;;;;;4.53;1.10;;;;;;;3.49;100.00;100608.34;1786329;77;21076;-47
2022/10/21 06:53:35;;;;;;;4.23;1.10;;;;;;;3.51;100.00;100610.08;1785776;77;21029;-48
2022/10/21 06:56:11;;;;;;;1.50;0.93;;;;;;;3.53;100.00;100616.28;1785296;77;21807;-47
2022/10/21 06:58:38;;;;;;;2.27;0.90;;;;;;;3.55;100.00;100621.16;1785435;77;21472;-46
2022/10/21 07:01:08;;;;;;;3.67;0.77;;;;;;;3.59;100.00;100610.03;1794888;77;21541;-47
2022/10/21 07:03:36;;;;;;;1.60;1.20;;;;;;;3.63;100.00;100618.00;1781595;77;21091;-47
2022/10/21 07:08:38;;;;;;;1.70;1.00;;;;;;;3.74;100.00;100612.13;1791723;78;27443;-47
2022/10/21 07:11:05;;;;;;;1.40;1.00;;;;;;;3.83;100.00;100612.52;1775596;79;21155;-45
2022/10/21 07:13:34;;;;;;;1.30;0.87;;;;;;;3.93;100.00;100618.66;1773600;79;21082;-47
2022/10/21 07:16:02;;;;;;;2.43;1.33;;;;;;;4.02;100.00;100619.48;1772995;79;21034;-48
2022/10/21 07:18:29;;;;;;;3.27;1.13;;;;;;;4.10;100.00;100620.75;1774617;79;21204;-46
2022/10/21 07:21:05;;;;;;;3.73;1.67;;;;;;;4.20;100.00;100626.44;1771395;78;21097;-47
2022/10/21 07:23:31;;;;;;;2.30;1.20;;;;;;;4.28;100.00;100616.59;1775983;79;27199;-46
2022/10/21 07:25:58;;;;;;;2.53;1.30;;;;;;;4.39;100.00;100617.84;1776060;79;21867;-45
2022/10/21 07:28:24;;;;;;;2.63;1.53;;;;;;;4.46;100.00;100621.77;1775369;79;21474;-47
2022/10/21 07:30:51;;;;;;;5.30;2.00;;;;;;;4.54;100.00;100615.02;1771888;78;21109;-46
2022/10/21 07:33:17;;;;;;;2.43;1.23;;;;;;;4.63;100.00;100624.70;1773987;79;21299;-47
2022/10/21 07:35:43;;;;;;;3.10;1.40;;;;;;;4.70;100.00;100629.07;1778171;79;21034;-46
2022/10/21 07:38:11;;;;;;;2.67;1.67;;;;;;;4.73;100.00;100631.27;1777797;79;22002;-45
2022/10/21 07:40:40;;;;;;;2.43;1.43;;;;;;;4.76;100.00;100619.69;1776319;79;21032;-45
2022/10/21 07:43:07;;;;;;;2.07;1.20;;;;;;;4.81;100.00;100620.52;1771808;78;21061;-46
2022/10/21 07:45:33;;;;;;;1.57;0.97;;;;;;;4.87;100.00;100624.44;1773754;79;21072;-46
2022/10/21 07:47:59;;;;;;;2.60;1.10;;;;;;;4.93;100.00;100625.23;1715873;81;21825;-46
2022/10/21 07:50:26;;;;;;;4.73;1.53;;;;;;;5.02;100.00;100616.25;1738039;81;21840;-47
2022/10/21 07:52:52;;;;;;;7.67;1.70;;;;;;;5.12;100.00;100619.23;1738760;80;21051;-50
2022/10/21 07:55:19;;;;;;;2.03;1.83;;;;;;;5.21;100.00;100616.45;1737020;81;21063;-46
2022/10/21 07:57:45;;;;;;;2.83;1.73;;;;;;;5.32;100.00;100617.66;1710776;82;21107;-46
2022/10/21 08:00:12;;;;;;;4.10;1.40;;;;;;;5.43;100.00;100621.53;1714904;81;21045;-47
2022/10/21 08:02:40;;;;;;;3.63;1.13;;;;;;;5.52;100.00;100618.73;1719369;81;21953;-46
2022/10/21 08:05:08;;;;;;;1.57;1.03;;;;;;;5.60;100.00;100614.17;1720354;81;21213;-45
2022/10/21 08:07:35;;;;;;;1.73;1.10;;;;;;;5.66;100.00;100608.28;1711540;82;21061;-48
2022/10/21 08:10:02;;;;;;;1.63;0.97;;;;;;;5.74;100.00;100612.16;1705495;82;21054;-47
2022/10/21 08:12:28;;;;;;;2.20;1.10;;;;;;;5.81;100.00;100613.83;1766435;79;21053;-46
2022/10/21 08:14:55;;;;;;;2.30;0.80;;;;;;;5.87;100.00;100613.73;1761671;79;21834;-47
2022/10/21 08:17:22;;;;;;;3.97;1.00;;;;;;;5.93;100.00;100612.36;1761237;79;21108;-47
2022/10/21 08:19:49;;;;;;;1.97;1.30;;;;;;;5.99;100.00;100617.59;1761517;80;21194;-47
2022/10/21 08:22:16;;;;;;;1.67;0.90;;;;;;;6.04;100.00;100610.83;1727234;81;21473;-47
2022/10/21 08:24:43;;;;;;;1.57;0.80;;;;;;;6.10;100.00;100615.20;1755233;79;22389;-46
2022/10/21 08:27:09;;;;;;;1.73;0.90;;;;;;;6.13;100.00;100615.14;1760963;79;21936;-46
2022/10/21 08:29:37;;;;;;;2.47;0.90;;;;;;;6.16;100.00;100614.64;1757109;80;21388;-46
2022/10/21 08:32:05;;;;;;;3.57;1.07;;;;;;;6.20;100.00;100612.37;1761451;79;21113;-47
2022/10/21 08:34:32;;;;;;;3.50;1.10;;;;;;;6.23;100.00;100610.07;1763550;80;21106;-48
2022/10/21 08:36:59;;;;;;;2.63;1.43;;;;;;;6.28;100.00;100613.56;1760748;80;21202;-46
2022/10/21 08:39:26;;;;;;;4.07;1.60;;;;;;;6.32;100.00;100613.47;1735043;80;22455;-47
2022/10/21 08:42:14;;;;;;;4.27;1.53;;;;;;;6.35;100.00;100607.20;1764519;80;21085;-46
2022/10/21 08:45:00;;;;;;;1.50;1.07;;;;;;;6.38;100.00;100605.34;1765527;80;21543;-46
2022/10/21 08:47:43;;;;;;;2.77;1.80;;;;;;;6.42;100.00;100600.83;1761061;80;21030;-47
2022/10/21 08:50:14;;;;;;;4.10;1.27;;;;;;;6.48;100.00;100602.50;1759021;79;21030;-47
2022/10/21 08:53:00;;;;;;;1.50;1.13;;;;;;;6.54;100.00;100603.75;1725387;81;21636;-47
2022/10/21 08:55:39;;;;;;;3.10;1.17;;;;;;;6.58;100.00;100598.30;1762832;79;21078;-46
2022/10/21 08:58:13;;;;;;;3.58;1.27;;;;;;;6.67;100.00;100599.92;1761004;80;21022;-47
2022/10/21 09:01:02;;;;;;;1.55;1.00;;;;;;;6.75;100.00;100605.55;1736444;80;22221;-47
2022/10/21 09:03:46;;;;;;;1.43;1.00;;;;;;;6.82;100.00;100613.00;1758388;80;21086;-48
2022/10/21 09:06:36;;;;;;;1.70;1.05;;;;;;;6.86;100.00;100614.72;1760605;80;21672;-47
2022/10/21 09:09:17;;;;;;;2.50;1.00;;;;;;;6.90;100.00;100605.70;1769217;79;21022;-47
2022/10/21 09:12:07;;;;;;;3.02;0.90;;;;;;;6.95;100.00;100606.97;1766774;79;21033;-47
2022/10/21 09:15:20;;;;;;;3.67;1.37;;;;;;;6.98;100.00;100606.43;1772258;79;21531;-48
2022/10/21 09:18:20;;;;;;;2.17;1.30;;;;;;;7.01;100.00;100609.05;1734173;80;21125;-47
2022/10/21 09:21:04;;;;;;;4.03;1.30;;;;;;;7.04;100.00;100609.00;1768923;79;22206;-47
2022/10/21 09:23:52;;;;;;;2.08;1.52;;;;;;;7.08;100.00;100599.98;1771982;79;21046;-48
2022/10/21 09:26:40;;;;;;;4.03;1.42;;;;;;;7.13;100.00;100594.09;1763913;80;21483;-47
2022/10/21 09:29:34;;;;;;;2.40;1.47;;;;;;;7.16;100.00;100606.51;1769752;80;21098;-48
2022/10/21 09:32:16;;;;;;;3.02;1.72;;;;;;;7.18;100.00;100606.91;1767883;79;27897;-47
2022/10/21 09:34:51;;;;;;;6.62;1.47;;;;;;;7.19;100.00;100603.78;1768657;80;22605;-46
2022/10/21 09:37:41;;;;;;;4.05;1.52;;;;;;;7.17;100.00;100606.48;1767707;79;21598;-48
2022/10/21 09:40:27;;;;;;;2.67;1.25;;;;;;;7.16;100.00;100612.75;1769055;80;21607;-48
2022/10/21 09:42:57;;;;;;;2.35;0.90;;;;;;;7.15;100.00;100605.63;1770454;79;25747;-46
2022/10/21 09:45:38;;;;;;;1.72;0.80;;;;;;;7.14;100.00;100610.59;1770738;79;21171;-46
2022/10/21 09:48:19;;;;;;;2.05;1.55;;;;;;;7.11;100.00;100597.70;1773897;80;22928;-46
2022/10/21 09:50:58;;;;;;;2.63;0.80;;;;;;;7.08;100.00;100600.44;1766441;79;21092;-47
2022/10/21 09:53:35;;;;;;;3.45;0.70;;;;;;;7.08;100.00;100593.74;1767531;79;21042;-47
2022/10/21 09:56:06;;;;;;;1.07;0.80;;;;;;;7.10;100.00;100585.23;1766271;79;21049;-48
2022/10/21 09:58:43;;;;;;;1.30;0.88;;;;;;;7.17;100.00;100590.88;1705320;82;21374;-46
2022/10/21 10:01:21;;;;;;;1.90;0.70;;;;;;;7.67;100.00;100595.56;1768992;79;21656;-48
2022/10/21 10:03:50;;;;;;;2.08;0.78;;;;;;;8.63;100.00;100584.69;1761474;79;21097;-47
2022/10/21 10:06:37;;;;;;;1.10;0.70;;;;;;;9.73;100.00;100575.14;1771685;79;22022;-47
2022/10/21 10:09:08;;;;;;;1.00;0.70;;;;;;;10.80;100.00;100572.41;1766188;79;21018;-46
2022/10/21 10:11:49;;;;;;;1.20;0.78;;;;;;;11.94;100.00;100570.72;1757653;79;21596;-46
2022/10/21 10:14:23;;;;;;;1.65;0.80;;;;;;;12.84;100.00;100555.56;1758458;79;21485;-47
2022/10/21 10:16:51;;;;;;;1.35;0.90;;;;;;;13.67;100.00;100540.95;1758227;80;21043;-48
2022/10/21 10:19:23;;;;;;;0.93;0.82;;;;;;;14.31;100.00;100538.13;1764174;80;21080;-48
2022/10/21 10:22:11;;;;;;;2.00;0.82;;;;;;;14.81;100.00;100526.98;1762056;79;21643;-48
2022/10/21 10:24:41;;;;;;;1.60;1.22;;;;;;;15.74;100.00;100522.72;1765990;80;21616;-48
2022/10/21 10:27:13;;;;;;;2.02;1.00;;;;;;;15.74;100.00;100522.72;1760609;79;22453;-48
2022/10/21 10:29:40;;;;;;;1.27;1.00;;;;;;;16.11;100.00;100526.91;1761828;79;21047;-48
2022/10/21 10:32:11;;;;;;;2.22;1.62;;;;;;;16.42;100.00;100529.54;1754816;80;21770;-48
2022/10/21 10:34:52;;;;;;;6.05;1.30;;;;;;;16.55;100.00;100522.90;1760297;79;21423;-48
2022/10/21 10:37:25;;;;;;;1.45;1.10;;;;;;;16.18;100.00;100525.57;1760884;80;21086;-47
2022/10/21 10:39:54;;;;;;;1.77;0.98;;;;;;;15.58;100.00;100524.08;1761452;80;21129;-47
2022/10/21 10:42:26;;;;;;;1.00;0.70;;;;;;;14.93;100.00;100524.98;1759230;79;21074;-49
2022/10/21 10:44:58;;;;;;;0.90;0.70;;;;;;;14.30;100.00;100525.53;1760496;80;20997;-48
2022/10/21 10:47:43;;;;;;;1.85;0.70;;;;;;;13.72;100.00;100522.64;1759425;79;21030;-47
2022/10/21 10:50:48;;;;;;;1.05;0.95;;;;;;;13.16;100.00;100525.77;1758368;80;21049;-48
2022/10/21 10:53:36;;;;;;;1.62;0.80;;;;;;;12.59;100.00;100529.23;1759974;80;21727;-48
2022/10/21 10:56:22;;;;;;;1.52;0.90;;;;;;;12.02;100.00;100590.64;1758862;80;21049;-47
2022/10/21 10:59:26;;;;;;;3.20;0.90;;;;;;;11.58;100.00;100515.06;1757612;80;21563;-49
2022/10/21 11:02:14;;;;;;;1.30;1.10;;;;;;;11.23;100.00;100517.80;1759456;80;21148;-49
2022/10/21 11:05:24;;;;;;;1.70;1.20;;;;;;;10.89;100.00;100508.77;1760730;80;21579;-49
2022/10/21 11:08:00;;;;;;;2.77;0.78;;;;;;;10.66;100.00;100502.48;1762372;80;21807;-49
2022/10/21 11:10:41;;;;;;;1.10;0.90;;;;;;;10.44;100.00;100503.75;1761353;80;21018;-49
2022/10/21 11:13:16;;;;;;;1.40;1.00;;;;;;;10.24;100.00;100505.32;1765588;80;21536;-48
2022/10/21 11:15:51;;;;;;;1.37;0.70;;;;;;;10.08;100.00;100507.22;1760202;80;21067;-48
2022/10/21 11:18:45;;;;;;;1.35;0.80;;;;;;;9.91;100.00;100503.76;1756009;79;21017;-49
2022/10/21 11:21:51;;;;;;;1.10;0.70;;;;;;;9.79;100.00;100501.46;1761619;80;22107;-49
2022/10/21 11:24:38;;;;;;;1.60;0.70;;;;;;;9.69;100.00;100498.23;1714915;80;21096;-47
2022/10/21 11:27:35;;;;;;;1.15;0.60;;;;;;;9.61;100.00;100490.84;1756791;79;24936;-47
2022/10/21 11:30:34;;;;;;;1.25;0.70;;;;;;;9.55;100.00;100491.52;1757554;80;21527;-46
2022/10/21 11:33:43;;;;;;;1.80;0.60;;;;;;;9.43;100.00;100480.72;1761921;79;21081;-47
2022/10/21 11:36:35;;;;;;;1.27;0.70;;;;;;;9.34;100.00;100481.89;1760122;80;21340;-48
2022/10/21 11:39:20;;;;;;;0.88;0.50;;;;;;;9.30;100.00;100481.55;1762713;80;21086;-47
2022/10/21 11:42:13;;;;;;;0.60;0.30;;;;;;;9.25;100.00;100476.80;1754853;80;21061;-48
2022/10/21 11:45:11;;;;;;;0.33;0.20;;;;;;;9.19;100.00;100476.97;1760752;80;21097;-48
2022/10/21 11:47:47;;;;;;;0.40;0.20;;;;;;;9.14;100.00;100474.91;1759555;80;21302;-48
2022/10/21 11:50:38;;;;;;;0.42;0.35;;;;;;;9.07;100.00;100480.94;1761881;80;21465;-48